createdAt,value
2022-08-03T00:00:38.855Z,99314.00
2022-08-03T00:01:38.882Z,99314.00
2022-08-03T00:02:38.936Z,99313.00
2022-08-03T00:03:38.892Z,99312.00
2022-08-03T00:04:38.922Z,99314.00
2022-08-03T00:05:38.904Z,99315.00
2022-08-03T00:06:38.931Z,99313.00
2022-08-03T00:07:38.973Z,99314.00
2022-08-03T00:08:40.370Z,99311.00
2022-08-03T00:09:39.030Z,99314.00
2022-08-03T00:10:38.997Z,99312.00
2022-08-03T00:11:39.021Z,99311.00
2022-08-03T00:12:39.010Z,99311.00
2022-08-03T00:13:39.019Z,99318.00
2022-08-03T00:14:39.047Z,99320.00
2022-08-03T00:15:39.033Z,99313.00
2022-08-03T00:16:39.055Z,99314.00
2022-08-03T00:17:52.960Z,99315.00
2022-08-03T00:18:39.087Z,99317.00
2022-08-03T00:19:39.132Z,99317.00
2022-08-03T00:20:39.106Z,99316.00
2022-08-03T00:21:39.147Z,99312.00
2022-08-03T00:22:39.166Z,99316.00
2022-08-03T00:23:51.871Z,99314.00
2022-08-03T00:24:39.221Z,99310.00
2022-08-03T00:25:39.202Z,99310.00
2022-08-03T00:26:39.221Z,99310.00
2022-08-03T00:27:39.255Z,99308.00
2022-08-03T00:28:39.276Z,99311.00
2022-08-03T00:29:57.604Z,99308.00
2022-08-03T00:30:39.343Z,99309.00
2022-08-03T00:31:51.428Z,99311.00
2022-08-03T00:32:45.196Z,99310.00
2022-08-03T00:33:59.322Z,99309.00
2022-08-03T00:34:57.400Z,99310.00
2022-08-03T00:35:50.433Z,99311.00
2022-08-03T00:36:39.465Z,99308.00
2022-08-03T00:37:41.194Z,99303.00
2022-08-03T00:38:39.517Z,99307.00
2022-08-03T00:39:39.540Z,99309.00
2022-08-03T00:40:39.577Z,99306.00
2022-08-03T00:41:39.562Z,99307.00
2022-08-03T00:42:39.590Z,99310.00
2022-08-03T00:43:39.609Z,99305.00
2022-08-03T00:44:39.618Z,99308.00
2022-08-03T00:45:39.645Z,99311.00
2022-08-03T00:46:39.640Z,99305.00
2022-08-03T00:47:39.654Z,99304.00
2022-08-03T00:48:39.658Z,99306.00
2022-08-03T00:49:39.747Z,99306.00
2022-08-03T00:50:39.711Z,99303.00
2022-08-03T00:51:39.688Z,99306.00
2022-08-03T00:52:39.698Z,99299.00
2022-08-03T00:53:39.698Z,99305.00
2022-08-03T00:54:39.669Z,99306.00
2022-08-03T00:55:39.914Z,99306.00
2022-08-03T00:56:39.714Z,99304.00
2022-08-03T00:57:39.730Z,99308.00
2022-08-03T00:58:39.751Z,99305.00
2022-08-03T00:59:39.775Z,99308.00
2022-08-03T01:00:39.793Z,99305.00
2022-08-03T01:01:39.903Z,99306.00
2022-08-03T01:02:39.813Z,99308.00
2022-08-03T01:03:39.805Z,99310.00
2022-08-03T01:04:39.804Z,99308.00
2022-08-03T01:05:39.843Z,99306.00
2022-08-03T01:06:39.832Z,99303.00
2022-08-03T01:07:39.849Z,99307.00
2022-08-03T01:08:39.880Z,99303.00
2022-08-03T01:09:39.887Z,99308.00
2022-08-03T01:10:39.920Z,99307.00
2022-08-03T01:12:01.115Z,99305.00
2022-08-03T01:12:39.961Z,99308.00
2022-08-03T01:14:03.997Z,99308.00
2022-08-03T01:14:40.003Z,99307.00
2022-08-03T01:15:40.011Z,99307.00
2022-08-03T01:16:40.015Z,99306.00
2022-08-03T01:17:40.017Z,99302.00
2022-08-03T01:18:40.019Z,99309.00
2022-08-03T01:19:40.049Z,99306.00
2022-08-03T01:20:40.075Z,99307.00
2022-08-03T01:21:40.103Z,99307.00
2022-08-03T01:22:40.121Z,99304.00
2022-08-03T01:23:40.125Z,99306.00
2022-08-03T01:24:40.892Z,99305.00
2022-08-03T01:25:40.195Z,99309.00
2022-08-03T01:26:40.235Z,99307.00
2022-08-03T01:27:40.230Z,99305.00
2022-08-03T01:28:40.261Z,99306.00
2022-08-03T01:29:40.288Z,99303.00
2022-08-03T01:30:40.309Z,99301.00
2022-08-03T01:32:52.531Z,99305.00
2022-08-03T01:32:53.304Z,99301.00
2022-08-03T01:33:40.356Z,99303.00
2022-08-03T01:34:40.360Z,99304.00
2022-08-03T01:35:40.402Z,99304.00
2022-08-03T01:36:40.394Z,99303.00
2022-08-03T01:37:40.413Z,99303.00
2022-08-03T01:38:40.396Z,99306.00
2022-08-03T01:39:40.440Z,99299.00
2022-08-03T01:40:40.456Z,99301.00
2022-08-03T01:41:40.446Z,99299.00
2022-08-03T01:42:40.470Z,99299.00
2022-08-03T01:44:26.680Z,99300.00
2022-08-03T01:44:40.515Z,99299.00
2022-08-03T01:45:40.563Z,99301.00
2022-08-03T01:46:40.601Z,99296.00
2022-08-03T01:47:40.604Z,99296.00
2022-08-03T01:48:40.630Z,99298.00
2022-08-03T01:49:40.785Z,99294.00
2022-08-03T01:50:40.671Z,99296.00
2022-08-03T01:51:56.156Z,99293.00
2022-08-03T01:52:40.743Z,99293.00
2022-08-03T01:53:40.708Z,99296.00
2022-08-03T01:54:40.730Z,99294.00
2022-08-03T01:55:40.752Z,99298.00
2022-08-03T01:56:40.781Z,99296.00
2022-08-03T01:58:06.199Z,99295.00
2022-08-03T01:58:40.823Z,99298.00
2022-08-03T01:59:40.856Z,99295.00
2022-08-03T02:00:40.937Z,99296.00
2022-08-03T02:02:15.227Z,99292.00
2022-08-03T02:02:41.398Z,99291.00
2022-08-03T02:03:59.779Z,99292.00
2022-08-03T02:04:40.906Z,99291.00
2022-08-03T02:05:40.947Z,99291.00
2022-08-03T02:07:01.772Z,99286.00
2022-08-03T02:07:40.999Z,99294.00
2022-08-03T02:08:41.013Z,99292.00
2022-08-03T02:09:41.041Z,99292.00
2022-08-03T02:10:41.075Z,99294.00
2022-08-03T02:11:41.096Z,99297.00
2022-08-03T02:12:41.105Z,99292.00
2022-08-03T02:13:41.124Z,99294.00
2022-08-03T02:14:41.139Z,99293.00
2022-08-03T02:15:41.168Z,99292.00
2022-08-03T02:16:41.244Z,99289.00
2022-08-03T02:17:41.218Z,99288.00
2022-08-03T02:18:41.237Z,99287.00
2022-08-03T02:19:41.250Z,99289.00
2022-08-03T02:20:41.272Z,99285.00
2022-08-03T02:21:56.949Z,99285.00
2022-08-03T02:22:41.329Z,99282.00
2022-08-03T02:23:41.333Z,99283.00
2022-08-03T02:24:41.575Z,99285.00
2022-08-03T02:25:41.342Z,99283.00
2022-08-03T02:26:41.373Z,99285.00
2022-08-03T02:27:43.673Z,99280.00
2022-08-03T02:28:41.429Z,99281.00
2022-08-03T02:29:41.392Z,99280.00
2022-08-03T02:30:41.415Z,99281.00
2022-08-03T02:31:41.444Z,99285.00
2022-08-03T02:32:41.468Z,99283.00
2022-08-03T02:33:41.479Z,99285.00
2022-08-03T02:34:41.497Z,99284.00
2022-08-03T02:35:41.535Z,99284.00
2022-08-03T02:36:41.561Z,99283.00
2022-08-03T02:37:42.644Z,99286.00
2022-08-03T02:38:41.580Z,99284.00
2022-08-03T02:39:41.599Z,99280.00
2022-08-03T02:40:41.627Z,99280.00
2022-08-03T02:41:41.644Z,99284.00
2022-08-03T02:42:41.685Z,99282.00
2022-08-03T02:44:05.495Z,99283.00
2022-08-03T02:44:41.687Z,99284.00
2022-08-03T02:45:45.336Z,99282.00
2022-08-03T02:46:41.714Z,99281.00
2022-08-03T02:47:54.147Z,99283.00
2022-08-03T02:48:41.772Z,99281.00
2022-08-03T02:49:51.379Z,99279.00
2022-08-03T02:50:41.758Z,99282.00
2022-08-03T02:51:41.776Z,99281.00
2022-08-03T02:52:41.800Z,99280.00
2022-08-03T02:53:41.811Z,99276.00
2022-08-03T02:54:41.824Z,99277.00
2022-08-03T02:55:43.112Z,99281.00
2022-08-03T02:56:41.893Z,99281.00
2022-08-03T02:57:41.931Z,99277.00
2022-08-03T02:58:41.918Z,99276.00
2022-08-03T02:59:41.942Z,99276.00
2022-08-03T03:00:41.984Z,99276.00
2022-08-03T03:01:41.985Z,99273.00
2022-08-03T03:02:43.933Z,99278.00
2022-08-03T03:03:44.670Z,99276.00
2022-08-03T03:05:50.824Z,99277.00
2022-08-03T03:05:55.339Z,99282.00
2022-08-03T03:06:42.035Z,99276.00
2022-08-03T03:07:49.799Z,99283.00
2022-08-03T03:08:42.042Z,99278.00
2022-08-03T03:09:43.235Z,99279.00
2022-08-03T03:10:42.107Z,99279.00
2022-08-03T03:11:42.118Z,99281.00
2022-08-03T03:12:42.148Z,99280.00
2022-08-03T03:13:42.156Z,99283.00
2022-08-03T03:14:42.180Z,99279.00
2022-08-03T03:15:42.166Z,99281.00
2022-08-03T03:16:42.170Z,99282.00
2022-08-03T03:17:42.230Z,99276.00
2022-08-03T03:18:42.207Z,99279.00
2022-08-03T03:19:42.243Z,99281.00
2022-08-03T03:20:42.258Z,99276.00
2022-08-03T03:21:42.270Z,99280.00
2022-08-03T03:22:43.535Z,99275.00
2022-08-03T03:23:42.294Z,99277.00
2022-08-03T03:24:42.321Z,99278.00
2022-08-03T03:25:42.360Z,99281.00
2022-08-03T03:26:42.583Z,99276.00
2022-08-03T03:27:42.619Z,99279.00
2022-08-03T03:28:42.433Z,99284.00
2022-08-03T03:29:42.452Z,99284.00
2022-08-03T03:30:42.478Z,99278.00
2022-08-03T03:31:42.500Z,99283.00
2022-08-03T03:32:42.517Z,99287.00
2022-08-03T03:33:42.531Z,99291.00
2022-08-03T03:34:42.558Z,99293.00
2022-08-03T03:35:42.573Z,99286.00
2022-08-03T03:36:42.590Z,99286.00
2022-08-03T03:37:42.589Z,99292.00
2022-08-03T03:38:42.634Z,99293.00
2022-08-03T03:39:42.824Z,99296.00
2022-08-03T03:40:42.591Z,99295.00
2022-08-03T03:41:42.617Z,99297.00
2022-08-03T03:42:42.644Z,99301.00
2022-08-03T03:43:42.662Z,99297.00
2022-08-03T03:44:42.676Z,99297.00
2022-08-03T03:45:42.692Z,99300.00
2022-08-03T03:46:42.715Z,99300.00
2022-08-03T03:47:42.742Z,99292.00
2022-08-03T03:48:42.769Z,99298.00
2022-08-03T03:49:42.784Z,99299.00
2022-08-03T03:50:42.801Z,99298.00
2022-08-03T03:51:42.809Z,99295.00
2022-08-03T03:52:42.824Z,99300.00
2022-08-03T03:53:42.811Z,99296.00
2022-08-03T03:54:42.816Z,99296.00
2022-08-03T03:56:01.862Z,99294.00
2022-08-03T03:56:42.826Z,99295.00
2022-08-03T03:57:42.841Z,99293.00
2022-08-03T03:58:42.848Z,99296.00
2022-08-03T03:59:42.846Z,99294.00
2022-08-03T04:00:42.872Z,99297.00
2022-08-03T04:01:42.853Z,99299.00
2022-08-03T04:02:42.877Z,99300.00
2022-08-03T04:03:42.844Z,99298.00
2022-08-03T04:04:42.840Z,99295.00
2022-08-03T04:05:45.890Z,99298.00
2022-08-03T04:06:42.871Z,99296.00
2022-08-03T04:07:42.895Z,99292.00
2022-08-03T04:08:42.916Z,99296.00
2022-08-03T04:09:42.931Z,99289.00
2022-08-03T04:10:42.938Z,99294.00
2022-08-03T04:11:42.932Z,99294.00
2022-08-03T04:12:50.184Z,99302.00
2022-08-03T04:13:42.981Z,99299.00
2022-08-03T04:14:43.013Z,99305.00
2022-08-03T04:15:42.994Z,99301.00
2022-08-03T04:16:43.925Z,99306.00
2022-08-03T04:17:43.046Z,99302.00
2022-08-03T04:18:43.108Z,99300.00
2022-08-03T04:19:43.082Z,99305.00
2022-08-03T04:20:43.063Z,99303.00
2022-08-03T04:21:43.095Z,99303.00
2022-08-03T04:22:43.110Z,99301.00
2022-08-03T04:23:43.138Z,99300.00
2022-08-03T04:24:43.178Z,99305.00
2022-08-03T04:25:43.160Z,99304.00
2022-08-03T04:26:43.167Z,99302.00
2022-08-03T04:27:43.196Z,99304.00
2022-08-03T04:28:43.218Z,99302.00
2022-08-03T04:29:46.422Z,99303.00
2022-08-03T04:30:43.247Z,99301.00
2022-08-03T04:31:43.254Z,99302.00
2022-08-03T04:32:45.971Z,99305.00
2022-08-03T04:33:43.282Z,99302.00
2022-08-03T04:34:43.273Z,99305.00
2022-08-03T04:36:01.257Z,99306.00
2022-08-03T04:36:43.318Z,99304.00
2022-08-03T04:37:43.349Z,99308.00
2022-08-03T04:38:43.371Z,99309.00
2022-08-03T04:39:43.381Z,99309.00
2022-08-03T04:40:43.406Z,99310.00
2022-08-03T04:42:04.675Z,99313.00
2022-08-03T04:42:43.429Z,99311.00
2022-08-03T04:43:43.447Z,99313.00
2022-08-03T04:44:43.424Z,99310.00
2022-08-03T04:45:43.447Z,99308.00
2022-08-03T04:46:46.743Z,99309.00
2022-08-03T04:47:43.499Z,99311.00
2022-08-03T04:48:44.874Z,99313.00
2022-08-03T04:49:43.608Z,99314.00
2022-08-03T04:50:43.529Z,99311.00
2022-08-03T04:51:43.562Z,99310.00
2022-08-03T04:52:43.529Z,99309.00
2022-08-03T04:53:43.534Z,99311.00
2022-08-03T04:54:50.075Z,99313.00
2022-08-03T04:55:43.581Z,99309.00
2022-08-03T04:56:43.600Z,99312.00
2022-08-03T04:57:43.614Z,99313.00
2022-08-03T04:58:43.638Z,99310.00
2022-08-03T04:59:43.648Z,99310.00
2022-08-03T05:02:09.782Z,99313.00
2022-08-03T05:03:20.119Z,99315.00
2022-08-03T05:04:09.641Z,99316.00
2022-08-03T05:05:09.675Z,99315.00
2022-08-03T05:06:11.633Z,99313.00
2022-08-03T05:07:11.756Z,99313.00
2022-08-03T05:08:11.039Z,99317.00
2022-08-03T05:09:09.735Z,99316.00
2022-08-03T05:10:15.911Z,99315.00
2022-08-03T05:11:09.763Z,99310.00
2022-08-03T05:12:09.851Z,99316.00
2022-08-03T05:13:09.756Z,99314.00
2022-08-03T05:14:09.757Z,99315.00
2022-08-03T05:15:09.758Z,99313.00
2022-08-03T05:16:09.782Z,99318.00
2022-08-03T05:17:09.815Z,99315.00
2022-08-03T05:18:13.992Z,99315.00
2022-08-03T05:19:09.850Z,99314.00
2022-08-03T05:20:09.875Z,99316.00
2022-08-03T05:21:09.887Z,99317.00
2022-08-03T05:22:09.958Z,99318.00
2022-08-03T05:23:09.905Z,99318.00
2022-08-03T05:24:09.942Z,99318.00
2022-08-03T05:25:09.924Z,99320.00
2022-08-03T05:26:09.946Z,99321.00
2022-08-03T05:27:09.966Z,99324.00
2022-08-03T05:28:09.972Z,99323.00
2022-08-03T05:29:10.013Z,99322.00
2022-08-03T05:30:29.627Z,99326.00
2022-08-03T05:31:10.005Z,99324.00
2022-08-03T05:32:10.047Z,99323.00
2022-08-03T05:33:10.033Z,99325.00
2022-08-03T05:34:10.076Z,99324.00
2022-08-03T05:35:55.843Z,99324.00
2022-08-03T05:36:10.096Z,99327.00
2022-08-03T05:37:10.115Z,99326.00
2022-08-03T05:38:10.152Z,99326.00
2022-08-03T05:39:10.182Z,99326.00
2022-08-03T05:40:10.171Z,99327.00
2022-08-03T05:41:21.785Z,99329.00
2022-08-03T05:42:10.293Z,99324.00
2022-08-03T05:43:10.205Z,99320.00
2022-08-03T05:44:10.226Z,99320.00
2022-08-03T05:45:10.243Z,99323.00
2022-08-03T05:46:12.150Z,99322.00
2022-08-03T05:47:10.305Z,99321.00
2022-08-03T05:48:10.264Z,99320.00
2022-08-03T05:49:10.361Z,99319.00
2022-08-03T05:50:10.292Z,99320.00
2022-08-03T05:51:10.319Z,99321.00
2022-08-03T05:52:14.473Z,99318.00
2022-08-03T05:53:10.366Z,99316.00
2022-08-03T05:54:10.347Z,99318.00
2022-08-03T05:55:10.374Z,99320.00
2022-08-03T05:56:15.278Z,99315.00
2022-08-03T05:57:10.420Z,99318.00
2022-08-03T05:58:10.456Z,99318.00
2022-08-03T05:59:35.891Z,99319.00
2022-08-03T06:00:10.473Z,99318.00
2022-08-03T06:01:10.535Z,99318.00
2022-08-03T06:02:10.623Z,99320.00
2022-08-03T06:03:10.486Z,99321.00
2022-08-03T06:04:10.501Z,99320.00
2022-08-03T06:05:10.518Z,99322.00
2022-08-03T06:06:10.519Z,99319.00
2022-08-03T06:07:10.516Z,99321.00
2022-08-03T06:08:10.540Z,99322.00
2022-08-03T06:09:10.566Z,99323.00
2022-08-03T06:10:36.584Z,99323.00
2022-08-03T06:11:10.562Z,99324.00
2022-08-03T06:12:14.072Z,99327.00
2022-08-03T06:13:10.594Z,99323.00
2022-08-03T06:14:10.582Z,99322.00
2022-08-03T06:15:11.409Z,99324.00
2022-08-03T06:16:10.583Z,99323.00
2022-08-03T06:17:10.598Z,99318.00
2022-08-03T06:18:10.613Z,99320.00
2022-08-03T06:19:10.642Z,99325.00
2022-08-03T06:20:10.613Z,99320.00
2022-08-03T06:21:15.243Z,99316.00
2022-08-03T06:22:10.643Z,99318.00
2022-08-03T06:23:15.907Z,99316.00
2022-08-03T06:24:10.684Z,99315.00
2022-08-03T06:25:12.996Z,99317.00
2022-08-03T06:26:11.184Z,99315.00
2022-08-03T06:27:10.691Z,99314.00
2022-08-03T06:28:18.932Z,99313.00
2022-08-03T06:29:10.723Z,99317.00
2022-08-03T06:30:10.722Z,99317.00
2022-08-03T06:31:10.751Z,99316.00
2022-08-03T06:32:10.815Z,99316.00
2022-08-03T06:33:10.731Z,99319.00
2022-08-03T06:34:34.145Z,99313.00
2022-08-03T06:35:10.779Z,99317.00
2022-08-03T06:36:10.827Z,99315.00
2022-08-03T06:37:10.826Z,99312.00
2022-08-03T06:38:10.854Z,99315.00
2022-08-03T06:39:10.882Z,99318.00
2022-08-03T06:40:10.892Z,99313.00
2022-08-03T06:41:10.944Z,99321.00
2022-08-03T06:42:10.982Z,99319.00
2022-08-03T06:43:12.677Z,99319.00
2022-08-03T06:44:10.923Z,99318.00
2022-08-03T06:45:10.920Z,99318.00
2022-08-03T06:46:10.969Z,99321.00
2022-08-03T06:47:10.959Z,99322.00
2022-08-03T06:48:10.985Z,99321.00
2022-08-03T06:49:11.131Z,99324.00
2022-08-03T06:50:16.136Z,99321.00
2022-08-03T06:51:11.045Z,99323.00
2022-08-03T06:52:11.026Z,99322.00
2022-08-03T06:53:19.698Z,99321.00
2022-08-03T06:54:11.079Z,99322.00
2022-08-03T06:55:11.075Z,99316.00
2022-08-03T06:56:11.077Z,99319.00
2022-08-03T06:57:11.106Z,99325.00
2022-08-03T06:58:11.142Z,99316.00
2022-08-03T07:00:09.402Z,99322.00
2022-08-03T07:00:12.398Z,99318.00
2022-08-03T07:01:11.310Z,99318.00
2022-08-03T07:02:11.204Z,99321.00
2022-08-03T07:03:11.228Z,99323.00
2022-08-03T07:04:11.268Z,99324.00
2022-08-03T07:05:11.236Z,99325.00
2022-08-03T07:06:11.249Z,99325.00
2022-08-03T07:07:11.277Z,99324.00
2022-08-03T07:08:11.294Z,99318.00
2022-08-03T07:09:11.348Z,99323.00
2022-08-03T07:10:11.330Z,99320.00
2022-08-03T07:11:11.333Z,99320.00
2022-08-03T07:12:11.374Z,99325.00
2022-08-03T07:13:11.356Z,99317.00
2022-08-03T07:14:11.353Z,99324.00
2022-08-03T07:15:20.410Z,99326.00
2022-08-03T07:16:11.407Z,99325.00
2022-08-03T07:17:11.709Z,99323.00
2022-08-03T07:18:11.451Z,99323.00
2022-08-03T07:19:11.487Z,99328.00
2022-08-03T07:20:11.526Z,99328.00
2022-08-03T07:21:11.493Z,99329.00
2022-08-03T07:22:11.518Z,99325.00
2022-08-03T07:23:19.053Z,99326.00
2022-08-03T07:24:11.563Z,99325.00
2022-08-03T07:25:11.595Z,99322.00
2022-08-03T07:26:11.579Z,99316.00
2022-08-03T07:27:11.621Z,99324.00
2022-08-03T07:28:11.648Z,99323.00
2022-08-03T07:29:14.915Z,99323.00
2022-08-03T07:30:11.654Z,99321.00
2022-08-03T07:31:11.672Z,99321.00
2022-08-03T07:32:11.652Z,99329.00
2022-08-03T07:33:11.656Z,99324.00
2022-08-03T07:34:11.683Z,99322.00
2022-08-03T07:35:24.944Z,99324.00
2022-08-03T07:36:11.722Z,99320.00
2022-08-03T07:37:11.738Z,99322.00
2022-08-03T07:38:11.757Z,99313.00
2022-08-03T07:39:16.706Z,99313.00
2022-08-03T07:40:11.799Z,99319.00
2022-08-03T07:41:11.826Z,99320.00
2022-08-03T07:42:11.843Z,99316.00
2022-08-03T07:43:11.880Z,99316.00
2022-08-03T07:44:11.865Z,99322.00
2022-08-03T07:45:16.574Z,99320.00
2022-08-03T07:46:11.862Z,99321.00
2022-08-03T07:47:22.322Z,99318.00
2022-08-03T07:48:12.704Z,99320.00
2022-08-03T07:49:11.975Z,99317.00
2022-08-03T07:50:11.873Z,99314.00
2022-08-03T07:51:11.897Z,99315.00
2022-08-03T07:52:11.902Z,99312.00
2022-08-03T07:53:11.916Z,99312.00
2022-08-03T07:54:11.960Z,99313.00
2022-08-03T07:55:11.981Z,99314.00
2022-08-03T07:56:12.007Z,99315.00
2022-08-03T07:57:12.034Z,99314.00
2022-08-03T07:58:12.032Z,99315.00
2022-08-03T07:59:12.063Z,99315.00
2022-08-03T08:00:12.078Z,99316.00
2022-08-03T08:01:12.209Z,99315.00
2022-08-03T08:02:12.093Z,99316.00
2022-08-03T08:03:12.104Z,99314.00
2022-08-03T08:04:12.154Z,99311.00
2022-08-03T08:05:12.125Z,99315.00
2022-08-03T08:06:12.146Z,99312.00
2022-08-03T08:07:12.159Z,99310.00
2022-08-03T08:08:12.168Z,99307.00
2022-08-03T08:09:12.187Z,99304.00
2022-08-03T08:10:12.218Z,99310.00
2022-08-03T08:11:12.216Z,99305.00
2022-08-03T08:12:15.178Z,99303.00
2022-08-03T08:13:12.202Z,99300.00
2022-08-03T08:14:12.222Z,99300.00
2022-08-03T08:15:12.234Z,99296.00
2022-08-03T08:16:12.254Z,99301.00
2022-08-03T08:17:12.240Z,99296.00
2022-08-03T08:18:12.222Z,99297.00
2022-08-03T08:19:12.772Z,99300.00
2022-08-03T08:20:12.253Z,99300.00
2022-08-03T08:21:12.291Z,99293.00
2022-08-03T08:22:12.306Z,99292.00
2022-08-03T08:23:36.234Z,99287.00
2022-08-03T08:24:15.249Z,99289.00
2022-08-03T08:25:12.333Z,99290.00
2022-08-03T08:26:12.353Z,99290.00
2022-08-03T08:27:12.379Z,99288.00
2022-08-03T08:28:29.705Z,99292.00
2022-08-03T08:29:12.408Z,99290.00
2022-08-03T08:30:15.974Z,99291.00
2022-08-03T08:31:12.438Z,99286.00
2022-08-03T08:32:12.515Z,99289.00
2022-08-03T08:33:22.137Z,99283.00
2022-08-03T08:34:12.519Z,99291.00
2022-08-03T08:35:12.518Z,99289.00
2022-08-03T08:36:15.371Z,99289.00
2022-08-03T08:37:12.569Z,99287.00
2022-08-03T08:38:12.596Z,99287.00
2022-08-03T08:39:12.612Z,99287.00
2022-08-03T08:40:12.617Z,99291.00
2022-08-03T08:41:12.654Z,99290.00
2022-08-03T08:42:12.757Z,99288.00
2022-08-03T08:43:12.708Z,99291.00
2022-08-03T08:44:12.726Z,99293.00
2022-08-03T08:45:12.727Z,99294.00
2022-08-03T08:46:12.762Z,99295.00
2022-08-03T08:47:12.769Z,99293.00
2022-08-03T08:48:12.802Z,99292.00
2022-08-03T08:49:12.907Z,99288.00
2022-08-03T08:50:15.544Z,99286.00
2022-08-03T08:51:12.870Z,99287.00
2022-08-03T08:52:25.181Z,99293.00
2022-08-03T08:53:18.181Z,99290.00
2022-08-03T08:54:12.932Z,99284.00
2022-08-03T08:55:12.962Z,99284.00
2022-08-03T08:56:12.959Z,99284.00
2022-08-03T08:57:33.600Z,99281.00
2022-08-03T08:58:13.018Z,99281.00
2022-08-03T08:59:13.040Z,99283.00
2022-08-03T09:00:13.068Z,99283.00
2022-08-03T09:01:13.151Z,99283.00
2022-08-03T09:02:13.167Z,99284.00
2022-08-03T09:03:13.164Z,99282.00
2022-08-03T09:04:13.145Z,99284.00
2022-08-03T09:05:13.167Z,99278.00
2022-08-03T09:06:13.175Z,99276.00
2022-08-03T09:07:19.977Z,99274.00
2022-08-03T09:08:13.199Z,99276.00
2022-08-03T09:09:28.510Z,99276.00
2022-08-03T09:10:13.809Z,99276.00
2022-08-03T09:11:13.246Z,99277.00
2022-08-03T09:12:37.566Z,99277.00
2022-08-03T09:13:13.280Z,99277.00
2022-08-03T09:14:39.473Z,99274.00
2022-08-03T09:15:17.215Z,99277.00
2022-08-03T09:16:13.286Z,99273.00
2022-08-03T09:17:17.355Z,99276.00
2022-08-03T09:18:13.459Z,99277.00
2022-08-03T09:19:13.301Z,99276.00
2022-08-03T09:20:13.317Z,99278.00
2022-08-03T09:21:30.094Z,99275.00
2022-08-03T09:22:13.362Z,99271.00
2022-08-03T09:23:51.812Z,99271.00
2022-08-03T09:24:31.181Z,99267.00
2022-08-03T09:25:24.331Z,99270.00
2022-08-03T09:26:13.432Z,99268.00
2022-08-03T09:27:13.487Z,99268.00
2022-08-03T09:28:13.462Z,99270.00
2022-08-03T09:29:15.278Z,99265.00
2022-08-03T09:30:32.492Z,99268.00
2022-08-03T09:31:13.482Z,99264.00
2022-08-03T09:32:14.920Z,99262.00
2022-08-03T09:33:13.546Z,99264.00
2022-08-03T09:34:13.570Z,99259.00
2022-08-03T09:35:13.588Z,99260.00
2022-08-03T09:36:13.615Z,99267.00
2022-08-03T09:37:13.745Z,99261.00
2022-08-03T09:38:14.424Z,99263.00
2022-08-03T09:39:13.680Z,99263.00
2022-08-03T09:40:13.697Z,99262.00
2022-08-03T09:41:13.719Z,99263.00
2022-08-03T09:42:14.720Z,99260.00
2022-08-03T09:43:13.785Z,99263.00
2022-08-03T09:44:24.211Z,99259.00
2022-08-03T09:45:13.785Z,99259.00
2022-08-03T09:46:13.785Z,99259.00
2022-08-03T09:47:13.803Z,99255.00
2022-08-03T09:48:13.825Z,99257.00
2022-08-03T09:49:13.933Z,99255.00
2022-08-03T09:50:13.975Z,99257.00
2022-08-03T09:51:32.829Z,99254.00
2022-08-03T09:52:32.367Z,99251.00
2022-08-03T09:53:13.941Z,99252.00
2022-08-03T09:54:20.386Z,99251.00
2022-08-03T09:56:30.945Z,99250.00
2022-08-03T09:56:35.585Z,99251.00
2022-08-03T09:57:14.096Z,99245.00
2022-08-03T09:58:14.048Z,99244.00
2022-08-03T09:59:14.069Z,99242.00
2022-08-03T10:00:14.084Z,99238.00
2022-08-03T10:01:23.935Z,99240.00
2022-08-03T10:02:14.100Z,99242.00
2022-08-03T10:03:14.083Z,99247.00
2022-08-03T10:04:14.092Z,99246.00
2022-08-03T10:05:19.403Z,99247.00
2022-08-03T10:06:14.111Z,99241.00
2022-08-03T10:07:14.126Z,99241.00
2022-08-03T10:08:14.138Z,99240.00
2022-08-03T10:09:14.165Z,99233.00
2022-08-03T10:10:30.549Z,99232.00
2022-08-03T10:11:14.264Z,99233.00
2022-08-03T10:12:14.226Z,99232.00
2022-08-03T10:13:14.231Z,99237.00
2022-08-03T10:14:14.230Z,99235.00
2022-08-03T10:16:22.594Z,99229.00
2022-08-03T10:16:23.486Z,99233.00
2022-08-03T10:17:14.302Z,99230.00
2022-08-03T10:18:14.334Z,99230.00
2022-08-03T10:19:14.315Z,99225.00
2022-08-03T10:20:14.288Z,99218.00
2022-08-03T10:21:14.305Z,99217.00
2022-08-03T10:22:14.323Z,99227.00
2022-08-03T10:23:14.351Z,99225.00
2022-08-03T10:24:14.368Z,99223.00
2022-08-03T10:25:14.358Z,99219.00
2022-08-03T10:26:14.376Z,99214.00
2022-08-03T10:27:14.382Z,99214.00
2022-08-03T10:28:14.400Z,99212.00
2022-08-03T10:29:14.436Z,99203.00
2022-08-03T10:30:14.424Z,99214.00
2022-08-03T10:31:14.510Z,99201.00
2022-08-03T10:32:14.432Z,99206.00
2022-08-03T10:33:49.552Z,99209.00
2022-08-03T10:34:14.486Z,99208.00
2022-08-03T10:35:19.645Z,99201.00
2022-08-03T10:36:14.449Z,99206.00
2022-08-03T10:37:14.468Z,99205.00
2022-08-03T10:38:14.489Z,99204.00
2022-08-03T10:39:16.219Z,99203.00
2022-08-03T10:40:33.254Z,99204.00
2022-08-03T10:41:14.573Z,99207.00
2022-08-03T10:42:14.971Z,99204.00
2022-08-03T10:43:14.631Z,99205.00
2022-08-03T10:44:14.656Z,99204.00
2022-08-03T10:45:14.686Z,99203.00
2022-08-03T10:46:14.685Z,99200.00
2022-08-03T10:47:14.710Z,99204.00
2022-08-03T10:48:14.738Z,99199.00
2022-08-03T10:49:14.848Z,99193.00
2022-08-03T10:50:14.802Z,99194.00
2022-08-03T10:51:14.840Z,99193.00
2022-08-03T10:52:31.844Z,99187.00
2022-08-03T10:53:18.626Z,99192.00
2022-08-03T10:54:14.821Z,99192.00
2022-08-03T10:55:14.830Z,99185.00
2022-08-03T10:56:14.858Z,99184.00
2022-08-03T10:57:14.898Z,99188.00
2022-08-03T10:58:14.851Z,99183.00
2022-08-03T10:59:27.448Z,99181.00
2022-08-03T11:00:14.930Z,99178.00
2022-08-03T11:01:14.979Z,99169.00
2022-08-03T11:02:14.930Z,99174.00
2022-08-03T11:03:14.942Z,99172.00
2022-08-03T11:04:17.002Z,99179.00
2022-08-03T11:05:14.993Z,99179.00
2022-08-03T11:06:14.975Z,99184.00
2022-08-03T11:07:15.165Z,99183.00
2022-08-03T11:08:14.991Z,99183.00
2022-08-03T11:09:15.011Z,99185.00
2022-08-03T11:10:15.030Z,99181.00
2022-08-03T11:11:15.016Z,99185.00
2022-08-03T11:12:15.054Z,99183.00
2022-08-03T11:13:15.029Z,99187.00
2022-08-03T11:14:15.040Z,99182.00
2022-08-03T11:15:15.040Z,99185.00
2022-08-03T11:16:19.822Z,99186.00
2022-08-03T11:17:15.064Z,99181.00
2022-08-03T11:18:15.090Z,99181.00
2022-08-03T11:19:15.122Z,99178.00
2022-08-03T11:20:15.126Z,99181.00
2022-08-03T11:21:15.159Z,99178.00
2022-08-03T11:22:15.179Z,99177.00
2022-08-03T11:23:15.194Z,99178.00
2022-08-03T11:24:15.211Z,99179.00
2022-08-03T11:25:53.645Z,99180.00
2022-08-03T11:26:15.267Z,99180.00
2022-08-03T11:27:15.248Z,99174.00
2022-08-03T11:28:15.264Z,99178.00
2022-08-03T11:29:15.294Z,99168.00
2022-08-03T11:30:15.314Z,99170.00
2022-08-03T11:31:39.256Z,99170.00
2022-08-03T11:32:19.420Z,99165.00
2022-08-03T11:33:15.378Z,99166.00
2022-08-03T11:34:15.385Z,99160.00
2022-08-03T11:35:15.430Z,99166.00
2022-08-03T11:36:15.406Z,99158.00
2022-08-03T11:37:15.428Z,99155.00
2022-08-03T11:38:15.453Z,99157.00
2022-08-03T11:39:17.051Z,99157.00
2022-08-03T11:40:15.492Z,99160.00
2022-08-03T11:41:15.520Z,99158.00
2022-08-03T11:42:15.525Z,99153.00
2022-08-03T11:43:15.717Z,99153.00
2022-08-03T11:44:15.582Z,99157.00
2022-08-03T11:45:15.563Z,99152.00
2022-08-03T11:46:15.601Z,99153.00